createdAt,value
2023-05-04T00:00:47.654Z,99611.81
2023-05-04T00:03:16.360Z,99613.53
2023-05-04T00:05:43.843Z,99603.06
2023-05-04T00:08:11.647Z,99605.69
2023-05-04T00:10:39.302Z,99606.41
2023-05-04T00:13:06.898Z,99603.97
2023-05-04T00:15:34.392Z,99609.12
2023-05-04T00:18:02.221Z,99605.50
2023-05-04T00:20:29.614Z,99602.19
2023-05-04T00:22:56.981Z,99602.06
2023-05-04T00:25:24.632Z,99590.03
2023-05-04T00:27:53.510Z,99594.44
2023-05-04T00:30:20.926Z,99589.16
2023-05-04T00:32:48.737Z,99590.06
2023-05-04T00:35:16.363Z,99590.91
2023-05-04T00:37:45.206Z,99592.69
2023-05-04T00:40:13.046Z,99586.59
2023-05-04T00:42:40.389Z,99594.34
2023-05-04T00:45:08.154Z,99587.47
2023-05-04T00:47:36.169Z,99587.47
2023-05-04T00:50:04.788Z,99590.09
2023-05-04T00:52:32.521Z,99586.59
2023-05-04T00:55:01.464Z,99590.94
2023-05-04T00:57:28.938Z,99595.28
2023-05-04T00:59:56.582Z,99584.00
2023-05-04T01:02:26.588Z,99589.25
2023-05-04T01:04:53.979Z,99586.59
2023-05-04T01:08:06.295Z,99589.19
2023-05-04T01:10:54.369Z,99583.97
2023-05-04T01:13:22.155Z,99584.91
2023-05-04T01:15:49.810Z,99585.75
2023-05-04T01:18:17.198Z,99584.00
2023-05-04T01:20:44.602Z,99588.34
2023-05-04T01:23:12.420Z,99592.72
2023-05-04T01:25:50.868Z,99590.09
2023-05-04T01:28:26.873Z,99591.00
2023-05-04T01:30:56.453Z,99591.00
2023-05-04T01:33:24.234Z,99582.28
2023-05-04T01:35:51.727Z,99578.78
2023-05-04T01:38:19.096Z,99580.53
2023-05-04T01:40:46.780Z,99585.75
2023-05-04T01:43:14.201Z,99589.25
2023-05-04T01:45:41.865Z,99580.53
2023-05-04T01:48:09.659Z,99581.37
2023-05-04T01:50:37.111Z,99578.78
2023-05-04T01:53:04.509Z,99580.50
2023-05-04T01:55:33.040Z,99576.13
2023-05-04T01:58:00.623Z,99579.63
2023-05-04T02:00:28.227Z,99572.66
2023-05-04T02:02:56.112Z,99570.94
2023-05-04T02:05:23.704Z,99580.50
2023-05-04T02:07:53.604Z,99572.66
2023-05-04T02:10:21.616Z,99576.19
2023-05-04T02:12:49.088Z,99579.63
2023-05-04T02:15:16.484Z,99571.81
2023-05-04T02:17:44.227Z,99573.56
2023-05-04T02:20:13.055Z,99573.56
2023-05-04T02:22:42.315Z,99570.94
2023-05-04T02:25:10.053Z,99569.22
2023-05-04T02:27:37.462Z,99566.59
2023-05-04T02:30:05.701Z,99570.97
2023-05-04T02:32:33.677Z,99569.22
2023-05-04T02:35:01.083Z,99568.34
2023-05-04T02:37:29.455Z,99558.75
2023-05-04T02:39:57.016Z,99570.09
2023-05-04T02:42:24.405Z,99570.97
2023-05-04T02:44:52.017Z,99569.19
2023-05-04T02:47:20.792Z,99572.69
2023-05-04T02:49:48.148Z,99571.78
2023-05-04T02:52:15.855Z,99572.66
2023-05-04T02:54:43.214Z,99570.03
2023-05-04T02:57:11.035Z,99570.06
2023-05-04T02:59:39.210Z,99570.03
2023-05-04T03:02:07.625Z,99569.19
2023-05-04T03:04:35.034Z,99566.53
2023-05-04T03:07:02.759Z,99575.25
2023-05-04T03:09:30.134Z,99574.41
2023-05-04T03:11:57.558Z,99578.78
2023-05-04T03:14:25.284Z,99576.16
2023-05-04T03:16:52.897Z,99573.53
2023-05-04T03:19:22.032Z,99581.41
2023-05-04T03:21:51.994Z,99580.50
2023-05-04T03:24:19.470Z,99582.28
2023-05-04T03:26:47.755Z,99577.06
2023-05-04T03:29:15.839Z,99583.13
2023-05-04T03:31:43.399Z,99584.00
2023-05-04T03:34:12.800Z,99578.72
2023-05-04T03:36:40.824Z,99584.88
2023-05-04T03:39:08.232Z,99583.13
2023-05-04T03:41:36.732Z,99583.06
2023-05-04T03:44:04.529Z,99580.44
2023-05-04T03:46:31.976Z,99591.81
2023-05-04T03:48:59.364Z,99588.25
2023-05-04T03:51:27.514Z,99586.50
2023-05-04T03:53:54.902Z,99601.72
2023-05-04T03:56:23.354Z,99597.56
2023-05-04T03:58:51.133Z,99601.81
2023-05-04T04:01:19.985Z,99598.22
2023-05-04T04:03:47.765Z,99605.34
2023-05-04T04:06:15.901Z,99614.00
2023-05-04T04:08:43.269Z,99602.66
2023-05-04T04:11:10.925Z,99608.09
2023-05-04T04:13:38.339Z,99596.09
2023-05-04T04:16:06.734Z,99608.47
2023-05-04T04:18:34.657Z,99607.72
2023-05-04T04:21:02.055Z,99605.44
2023-05-04T04:23:29.419Z,99612.03
2023-05-04T04:25:57.157Z,99611.34
2023-05-04T04:28:24.554Z,99613.81
2023-05-04T04:30:51.993Z,99620.03
2023-05-04T04:33:19.660Z,99613.03
2023-05-04T04:35:47.458Z,99605.50
2023-05-04T04:38:14.870Z,99603.03
2023-05-04T04:40:42.815Z,99610.88
2023-05-04T04:43:11.312Z,99605.69
2023-05-04T04:45:41.120Z,99610.03
2023-05-04T04:48:08.828Z,99608.28
2023-05-04T04:50:39.169Z,99604.81
2023-05-04T04:53:06.543Z,99608.34
2023-05-04T04:55:34.889Z,99615.28
2023-05-04T04:58:02.271Z,99610.94
2023-05-04T05:00:30.027Z,99612.72
2023-05-04T05:02:57.652Z,99622.28
2023-05-04T05:05:25.109Z,99624.91
2023-05-04T05:07:53.018Z,99620.50
2023-05-04T05:10:23.951Z,99627.50
2023-05-04T05:12:51.397Z,99622.31
2023-05-04T05:15:18.927Z,99617.06
2023-05-04T05:17:46.748Z,99621.44
2023-05-04T05:20:15.268Z,99631.06
2023-05-04T05:22:43.088Z,99631.91
2023-05-04T05:25:10.914Z,99633.69
2023-05-04T05:27:38.317Z,99628.44
2023-05-04T05:30:06.741Z,99622.34
2023-05-04T05:32:34.810Z,99622.38
2023-05-04T05:35:02.693Z,99624.09
2023-05-04T05:37:30.710Z,99621.47
2023-05-04T05:39:59.752Z,99623.25
2023-05-04T05:42:29.482Z,99626.69
2023-05-04T05:44:58.171Z,99622.28
2023-05-04T05:47:25.874Z,99624.97
2023-05-04T05:49:53.409Z,99624.91
2023-05-04T05:52:20.941Z,99630.13
2023-05-04T05:54:48.749Z,99622.22
2023-05-04T05:57:16.409Z,99629.25
2023-05-04T05:59:44.758Z,99634.34
2023-05-04T06:02:14.917Z,99627.34
2023-05-04T06:04:43.336Z,99629.81
2023-05-04T06:07:10.852Z,99634.91
2023-05-04T06:09:38.251Z,99629.69
2023-05-04T06:12:07.238Z,99632.22
2023-05-04T06:14:34.611Z,99633.75
2023-05-04T06:17:01.964Z,99632.63
2023-05-04T06:19:31.588Z,99638.84
2023-05-04T06:21:59.022Z,99629.16
2023-05-04T06:24:27.138Z,99638.59
2023-05-04T06:26:55.159Z,99639.50
2023-05-04T06:29:22.733Z,99636.59
2023-05-04T06:31:50.211Z,99639.47
2023-05-04T06:34:18.012Z,99638.78
2023-05-04T06:36:45.525Z,99644.25
2023-05-04T06:39:13.030Z,99645.06
2023-05-04T06:41:40.856Z,99645.69
2023-05-04T06:44:08.620Z,99647.03
2023-05-04T06:46:39.241Z,99651.19
2023-05-04T06:49:06.878Z,99648.63
2023-05-04T06:51:37.666Z,99645.06
2023-05-04T06:54:05.212Z,99646.97
2023-05-04T06:56:32.946Z,99645.41
2023-05-04T06:59:00.493Z,99652.16
2023-05-04T07:01:27.889Z,99649.34
2023-05-04T07:03:58.366Z,99652.34
2023-05-04T07:06:27.229Z,99654.91
2023-05-04T07:08:54.648Z,99657.50
2023-05-04T07:11:22.325Z,99649.56
2023-05-04T07:13:49.953Z,99641.59
2023-05-04T07:16:17.368Z,99646.53
2023-05-04T07:37:46.431Z,99651.31
2023-05-04T07:40:14.900Z,99641.50
2023-05-04T07:42:42.277Z,99646.59
2023-05-04T07:45:10.538Z,99660.09
2023-05-04T07:47:38.273Z,99648.59
2023-05-04T07:50:06.302Z,99651.91
2023-05-04T07:52:33.857Z,99638.56
2023-05-04T07:55:01.500Z,99645.97
2023-05-04T07:57:28.848Z,99652.13
2023-05-04T07:59:56.265Z,99647.94
2023-05-04T08:02:24.114Z,99651.03
2023-05-04T08:04:51.874Z,99646.22
2023-05-04T08:07:20.608Z,99645.03
2023-05-04T08:09:48.168Z,99650.34
2023-05-04T08:12:15.864Z,99644.88
2023-05-04T08:14:46.985Z,99649.75
2023-05-04T08:17:14.350Z,99641.69
2023-05-04T08:19:41.965Z,99649.91
2023-05-04T08:22:09.492Z,99655.88
2023-05-04T08:24:37.142Z,99649.84
2023-05-04T08:27:08.677Z,99657.13
2023-05-04T08:29:37.682Z,99654.53
2023-05-04T08:32:06.174Z,99663.78
2023-05-04T08:34:33.786Z,99658.63
2023-05-04T08:37:02.377Z,99658.69
2023-05-04T08:39:30.586Z,99667.28
2023-05-04T08:41:58.074Z,99669.44
2023-05-04T08:44:25.706Z,99663.19
2023-05-04T08:46:53.822Z,99658.34
2023-05-04T08:49:22.789Z,99660.28
2023-05-04T08:51:50.752Z,99657.72
2023-05-04T08:54:18.938Z,99661.59
2023-05-04T08:56:47.198Z,99658.16
2023-05-04T08:59:22.033Z,99657.06
2023-05-04T09:01:52.099Z,99653.78
2023-05-04T09:04:20.751Z,99656.06
2023-05-04T09:06:48.368Z,99656.78
2023-05-04T09:09:16.289Z,99645.84
2023-05-04T09:11:43.759Z,99655.03
2023-05-04T09:14:11.378Z,99654.88
2023-05-04T09:16:39.163Z,99660.28
2023-05-04T09:19:17.806Z,99657.66
2023-05-04T09:21:47.108Z,99650.41
2023-05-04T09:24:14.585Z,99652.25
2023-05-04T09:26:41.965Z,99659.53
2023-05-04T09:29:14.051Z,99652.09
2023-05-04T09:31:52.209Z,99656.19
2023-05-04T09:34:21.464Z,99656.50
2023-05-04T09:37:02.612Z,99658.47
2023-05-04T09:39:30.707Z,99654.97
2023-05-04T09:41:58.137Z,99652.38
2023-05-04T09:44:28.224Z,99649.16
2023-05-04T09:46:59.837Z,99654.72
2023-05-04T09:49:38.999Z,99638.97
2023-05-04T09:52:07.079Z,99638.56
2023-05-04T09:54:36.225Z,99640.75
2023-05-04T09:57:14.614Z,99633.94
2023-05-04T09:59:42.440Z,99641.22
2023-05-04T10:02:21.997Z,99634.56
2023-05-04T10:04:52.174Z,99633.88
2023-05-04T10:07:20.771Z,99625.06
2023-05-04T10:09:49.157Z,99632.09
2023-05-04T10:12:16.970Z,99632.06
2023-05-04T10:14:46.994Z,99631.69
2023-05-04T10:17:20.711Z,99621.63
2023-05-04T10:20:19.646Z,99626.63
2023-05-04T10:22:52.687Z,99623.31
2023-05-04T10:25:50.044Z,99619.50
2023-05-04T10:28:29.484Z,99618.16
2023-05-04T10:30:58.366Z,99612.87
2023-05-04T10:33:26.753Z,99617.44
2023-05-04T10:35:54.742Z,99610.31
2023-05-04T10:38:33.217Z,99613.97
2023-05-04T10:41:00.594Z,99599.97
2023-05-04T10:43:32.603Z,99608.97
2023-05-04T10:46:02.165Z,99604.31
2023-05-04T10:48:35.114Z,99607.97
2023-05-04T10:51:02.506Z,99600.09
2023-05-04T10:53:33.971Z,99604.66
2023-05-04T10:56:01.334Z,99603.94
2023-05-04T10:58:29.126Z,99598.88
2023-05-04T11:00:56.982Z,99594.69
2023-05-04T11:03:25.094Z,99590.50
2023-05-04T11:05:54.682Z,99593.59
2023-05-04T11:08:24.665Z,99579.84
2023-05-04T11:11:03.381Z,99584.94
2023-05-04T11:13:33.846Z,99573.25
2023-05-04T11:16:01.749Z,99574.72
2023-05-04T11:18:34.415Z,99566.09
2023-05-04T11:21:02.588Z,99563.53
2023-05-04T11:23:30.760Z,99560.50
2023-05-04T11:25:58.153Z,99558.06
2023-05-04T11:28:36.174Z,99548.69
2023-05-04T11:31:17.193Z,99558.25
2023-05-04T11:33:46.366Z,99553.34
2023-05-04T11:36:14.028Z,99552.53
2023-05-04T11:38:41.769Z,99551.41
2023-05-04T11:41:10.130Z,99551.94
2023-05-04T11:43:38.162Z,99561.13
2023-05-04T11:46:06.662Z,99559.16
2023-05-04T11:48:35.563Z,99565.53
2023-05-04T11:51:03.792Z,99557.56
2023-05-04T11:53:38.706Z,99562.47
2023-05-04T11:56:08.993Z,99561.69
2023-05-04T11:58:37.013Z,99557.66
2023-05-04T12:01:04.738Z,99555.50
2023-05-04T12:03:53.183Z,99555.34
2023-05-04T12:06:32.610Z,99560.50
2023-05-04T12:09:05.969Z,99560.09
2023-05-04T12:11:34.878Z,99564.22
2023-05-04T12:14:05.125Z,99562.53
2023-05-04T12:16:33.493Z,99550.00
2023-05-04T12:19:12.726Z,99558.44
2023-05-04T12:21:54.422Z,99556.72
2023-05-04T12:24:23.551Z,99557.75
2023-05-04T12:26:51.604Z,99551.50
2023-05-04T12:29:19.188Z,99545.44
2023-05-04T12:31:47.685Z,99551.50
2023-05-04T12:34:15.580Z,99533.47
2023-05-04T12:36:44.492Z,99541.41
2023-05-04T12:39:11.979Z,99540.22
2023-05-04T12:41:40.207Z,99540.50
2023-05-04T12:44:09.185Z,99539.13
2023-05-04T12:46:37.427Z,99529.63
2023-05-04T12:49:06.336Z,99524.19
2023-05-04T12:51:33.750Z,99526.53
2023-05-04T12:54:01.203Z,99522.38
2023-05-04T12:56:28.963Z,99521.75
2023-05-04T12:58:56.523Z,99513.06
2023-05-04T13:01:24.050Z,99516.19
2023-05-04T13:03:51.956Z,99506.59
2023-05-04T13:06:19.875Z,99503.72
2023-05-04T13:08:47.395Z,99510.44
2023-05-04T13:11:19.180Z,99509.88
2023-05-04T13:13:46.590Z,99511.38
2023-05-04T13:16:14.212Z,99512.97
2023-05-04T13:18:43.374Z,99509.19
2023-05-04T13:21:11.481Z,99507.75
2023-05-04T13:23:38.860Z,99501.38
2023-05-04T13:26:06.686Z,99507.84
2023-05-04T13:28:34.065Z,99500.72
2023-05-04T13:31:01.691Z,99497.63
2023-05-04T13:33:30.766Z,99486.50
2023-05-04T13:35:59.097Z,99493.00
2023-05-04T13:38:27.027Z,99493.00
2023-05-04T13:40:55.577Z,99483.09
2023-05-04T13:43:23.128Z,99476.25
2023-05-04T13:45:50.880Z,99478.56
2023-05-04T13:48:18.776Z,99471.91
2023-05-04T13:50:46.165Z,99470.84
2023-05-04T13:53:13.652Z,99471.69
2023-05-04T13:55:41.418Z,99478.38
2023-05-04T13:58:08.881Z,99474.25
2023-05-04T14:00:36.333Z,99478.13
2023-05-04T14:03:05.469Z,99489.38
2023-05-04T14:05:35.353Z,99476.44
2023-05-04T14:08:03.016Z,99477.31
2023-05-04T14:10:30.791Z,99467.22
2023-05-04T14:12:59.069Z,99470.31
2023-05-04T14:15:27.637Z,99479.56
2023-05-04T14:17:55.428Z,99474.00
2023-05-04T14:20:22.969Z,99472.72
2023-05-04T14:22:50.383Z,99476.16
2023-05-04T14:25:18.208Z,99464.25
2023-05-04T14:27:46.317Z,99464.34
2023-05-04T14:30:14.171Z,99461.47
2023-05-04T14:32:42.115Z,99466.91
2023-05-04T14:35:10.947Z,99457.63
2023-05-04T14:37:39.647Z,99457.22
2023-05-04T14:40:09.421Z,99455.94
2023-05-04T14:42:37.498Z,99464.62
2023-05-04T14:45:06.921Z,99457.16
2023-05-04T14:47:35.129Z,99456.41
2023-05-04T14:50:02.654Z,99462.72
2023-05-04T14:52:31.573Z,99449.59
2023-05-04T14:54:59.276Z,99453.78
2023-05-04T14:57:27.635Z,99458.06
2023-05-04T14:59:55.172Z,99456.94
2023-05-04T15:02:23.063Z,99453.97
2023-05-04T15:04:50.632Z,99451.50
2023-05-04T15:07:20.831Z,99454.22
2023-05-04T15:09:49.031Z,99456.41
2023-05-04T15:12:17.590Z,99462.22
2023-05-04T15:14:46.120Z,99461.53
2023-05-04T15:17:14.865Z,99459.25
2023-05-04T15:19:43.754Z,99457.09
2023-05-04T15:22:11.306Z,99450.94
2023-05-04T15:24:38.996Z,99459.44
2023-05-04T15:27:06.596Z,99450.28
2023-05-04T15:29:33.999Z,99457.00
2023-05-04T15:32:01.718Z,99445.50
2023-05-04T15:34:31.625Z,99451.06
2023-05-04T15:36:59.002Z,99451.94
2023-05-04T15:39:26.714Z,99443.72
2023-05-04T15:41:54.132Z,99458.56
2023-05-04T15:44:21.693Z,99449.94
2023-05-04T15:46:49.876Z,99459.06
2023-05-04T15:49:17.341Z,99456.31
2023-05-04T15:51:45.033Z,99457.53
2023-05-04T15:54:12.747Z,99460.28
2023-05-04T15:56:40.243Z,99451.34
2023-05-04T15:59:07.738Z,99447.09
2023-05-04T16:01:35.610Z,99443.31
2023-05-04T16:04:03.456Z,99455.38
2023-05-04T16:06:31.315Z,99446.88
2023-05-04T16:08:58.704Z,99453.94
2023-05-04T16:11:26.352Z,99449.41
2023-05-04T16:13:53.752Z,99452.37
2023-05-04T16:16:21.368Z,99445.97
2023-05-04T16:18:49.051Z,99441.19
2023-05-04T16:21:16.675Z,99440.78
2023-05-04T16:23:44.182Z,99434.12
2023-05-04T16:26:12.090Z,99443.69
2023-05-04T16:28:40.563Z,99439.44
2023-05-04T16:31:10.308Z,99443.94
2023-05-04T16:33:41.549Z,99439.13
2023-05-04T16:36:09.429Z,99443.38
2023-05-04T16:38:36.808Z,99446.63
2023-05-04T16:41:04.575Z,99444.63
2023-05-04T16:43:32.071Z,99452.22
2023-05-04T16:45:59.612Z,99448.16
2023-05-04T16:48:27.304Z,99459.59
2023-05-04T16:50:54.744Z,99451.97
2023-05-04T16:53:24.025Z,99460.03
2023-05-04T16:55:52.361Z,99454.34
2023-05-04T16:58:19.713Z,99466.25
2023-05-04T17:00:47.112Z,99464.81
2023-05-04T17:03:14.844Z,99465.63
2023-05-04T17:05:42.261Z,99470.06
2023-05-04T17:08:11.376Z,99465.78
2023-05-04T17:10:40.021Z,99473.47
2023-05-04T17:13:07.667Z,99463.94
2023-05-04T17:15:35.126Z,99472.94
2023-05-04T17:18:02.813Z,99475.81
2023-05-04T17:20:32.036Z,99472.44
2023-05-04T17:22:59.693Z,99477.38
2023-05-04T17:25:27.480Z,99471.25
2023-05-04T17:27:54.934Z,99472.59
2023-05-04T17:30:22.486Z,99479.38
2023-05-04T17:32:51.139Z,99478.16
2023-05-04T17:35:25.041Z,99482.09
2023-05-04T17:37:57.929Z,99481.28
2023-05-04T17:40:29.581Z,99482.22
2023-05-04T17:43:00.828Z,99480.59
2023-05-04T17:45:28.389Z,99485.69
2023-05-04T17:47:57.161Z,99491.34
2023-05-04T17:50:25.616Z,99497.81
2023-05-04T17:52:56.497Z,99500.50
2023-05-04T17:55:27.737Z,99499.38
2023-05-04T17:57:55.470Z,99500.59
2023-05-04T18:00:23.688Z,99503.19
2023-05-04T18:02:51.840Z,99503.72
2023-05-04T18:05:19.874Z,99507.44
2023-05-04T18:07:47.432Z,99515.13
2023-05-04T18:10:16.105Z,99511.69
2023-05-04T18:12:43.496Z,99514.75
2023-05-04T18:15:10.972Z,99518.56
2023-05-04T18:17:38.961Z,99526.38
2023-05-04T18:20:11.371Z,99524.81
2023-05-04T18:22:39.248Z,99525.69
2023-05-04T18:25:07.348Z,99524.06
2023-05-04T18:27:35.564Z,99533.66
2023-05-04T18:30:04.454Z,99534.44
2023-05-04T18:32:34.043Z,99533.63
2023-05-04T18:35:02.472Z,99539.06
2023-05-04T18:37:31.912Z,99541.31
2023-05-04T18:40:00.082Z,99546.69
2023-05-04T18:42:27.872Z,99545.97
2023-05-04T18:44:56.282Z,99550.09
2023-05-04T18:47:24.116Z,99555.44
2023-05-04T18:49:52.901Z,99559.03
2023-05-04T18:52:21.870Z,99560.81
2023-05-04T18:54:49.736Z,99557.19
2023-05-04T18:57:17.416Z,99566.09
2023-05-04T18:59:45.272Z,99569.69
2023-05-04T19:02:13.520Z,99572.25
2023-05-04T19:04:41.517Z,99583.84
2023-05-04T19:07:09.940Z,99574.28
2023-05-04T19:09:37.895Z,99580.34
2023-05-04T19:12:05.664Z,99573.44
2023-05-04T19:14:33.627Z,99582.06
2023-05-04T19:17:02.291Z,99590.72
2023-05-04T19:19:30.651Z,99583.84
2023-05-04T19:21:58.655Z,99586.56
2023-05-04T19:24:26.405Z,99594.41
2023-05-04T19:26:53.947Z,99593.47
2023-05-04T19:29:21.351Z,99597.03
2023-05-04T19:31:49.068Z,99598.09
2023-05-04T19:34:17.701Z,99598.00
2023-05-04T19:36:45.373Z,99599.00
2023-05-04T19:39:13.364Z,99601.66
2023-05-04T19:41:40.720Z,99598.25
2023-05-04T19:44:10.060Z,99599.78
2023-05-04T19:46:37.787Z,99594.56
2023-05-04T19:49:05.196Z,99593.75
2023-05-04T19:51:32.915Z,99592.91
2023-05-04T19:54:00.950Z,99592.03
2023-05-04T19:56:28.460Z,99593.00
2023-05-04T19:58:55.850Z,99592.13
2023-05-04T20:01:24.944Z,99600.03
2023-05-04T20:03:52.893Z,99592.19
2023-05-04T20:06:20.313Z,99589.63
2023-05-04T20:08:47.797Z,99590.53
2023-05-04T20:11:15.660Z,99598.38
2023-05-04T20:13:43.044Z,99600.00
2023-05-04T20:16:10.456Z,99593.03
2023-05-04T20:18:38.143Z,99600.91
2023-05-04T20:21:05.583Z,99602.69
2023-05-04T20:23:33.153Z,99602.84
2023-05-04T20:26:00.921Z,99602.78
2023-05-04T20:28:28.297Z,99603.56
2023-05-04T20:30:55.759Z,99603.59
2023-05-04T20:33:23.554Z,99601.94
2023-05-04T20:35:51.059Z,99606.31
2023-05-04T20:38:18.441Z,99601.12
2023-05-04T20:40:46.068Z,99598.50
2023-05-04T20:43:13.429Z,99592.41
2023-05-04T20:45:40.801Z,99588.91
2023-05-04T20:48:09.067Z,99593.31
2023-05-04T20:50:36.673Z,99592.47
2023-05-04T20:53:04.350Z,99588.09
2023-05-04T20:55:32.016Z,99597.75
2023-05-04T20:57:59.386Z,99594.25
2023-05-04T21:00:26.769Z,99596.87
2023-05-04T21:02:55.757Z,99589.00
2023-05-04T21:05:23.220Z,99585.56
2023-05-04T21:07:52.240Z,99601.25
2023-05-04T21:10:20.401Z,99593.41
2023-05-04T21:12:48.023Z,99594.16
2023-05-04T21:15:15.514Z,99599.44
2023-05-04T21:17:43.242Z,99609.94
2023-05-04T21:20:10.915Z,99607.31
2023-05-04T21:22:38.434Z,99616.09
2023-05-04T21:25:06.998Z,99615.22
2023-05-04T21:27:34.371Z,99624.06
2023-05-04T21:30:09.818Z,99625.78
2023-05-04T21:32:38.253Z,99617.91
2023-05-04T21:35:06.729Z,99617.06
2023-05-04T21:37:34.148Z,99619.66
2023-05-04T21:40:02.172Z,99610.84
2023-05-04T21:42:30.002Z,99616.00
2023-05-04T21:44:57.657Z,99609.06
2023-05-04T21:47:26.310Z,99610.78
2023-05-04T21:49:54.663Z,99610.84
2023-05-04T21:52:22.644Z,99613.47
2023-05-04T21:54:50.312Z,99620.37
2023-05-04T21:57:17.808Z,99626.53
2023-05-04T21:59:49.613Z,99617.84
2023-05-04T22:02:17.605Z,99616.09
2023-05-04T22:04:45.592Z,99625.69
2023-05-04T22:07:13.018Z,99624.84
2023-05-04T22:09:40.410Z,99624.09
2023-05-04T22:12:08.217Z,99624.00
2023-05-04T22:14:35.639Z,99623.91
2023-05-04T22:17:03.177Z,99626.56
2023-05-04T22:19:30.927Z,99626.53
2023-05-04T22:21:58.360Z,99630.91
2023-05-04T22:24:27.043Z,99636.94
2023-05-04T22:26:54.760Z,99623.00
2023-05-04T22:29:22.678Z,99623.16
2023-05-04T22:31:50.056Z,99631.88
2023-05-04T22:34:17.658Z,99624.81
2023-05-04T22:36:45.012Z,99627.59
2023-05-04T22:39:12.450Z,99634.56
2023-05-04T22:41:40.107Z,99630.19
2023-05-04T22:44:07.508Z,99620.47
2023-05-04T22:46:34.994Z,99614.41
2023-05-04T22:49:02.719Z,99623.91
2023-05-04T22:51:30.262Z,99614.41
2023-05-04T22:53:57.597Z,99616.16
2023-05-04T22:56:25.923Z,99614.38
2023-05-04T22:58:53.270Z,99613.59
2023-05-04T23:01:20.736Z,99611.84
2023-05-04T23:03:49.061Z,99613.63
2023-05-04T23:06:16.500Z,99616.19
2023-05-04T23:08:45.373Z,99610.06
2023-05-04T23:11:12.994Z,99606.66
2023-05-04T23:13:40.321Z,99608.31
2023-05-04T23:16:07.964Z,99611.00
2023-05-04T23:18:35.702Z,99605.81
2023-05-04T23:21:03.242Z,99615.34
2023-05-04T23:23:31.586Z,99604.81
2023-05-04T23:25:59.397Z,99608.28
2023-05-04T23:28:26.735Z,99598.72
2023-05-04T23:30:55.763Z,99598.75
2023-05-04T23:33:23.563Z,99606.59
2023-05-04T23:35:54.328Z,99602.28
2023-05-04T23:38:22.879Z,99594.41
2023-05-04T23:40:51.646Z,99598.78
2023-05-04T23:43:19.012Z,99597.97
2023-05-04T23:45:46.414Z,99599.69
2023-05-04T23:48:14.075Z,99592.72
2023-05-04T23:50:41.540Z,99594.47
2023-05-04T23:53:08.890Z,99596.22
2023-05-04T23:55:36.468Z,99593.59
2023-05-04T23:58:03.808Z,99593.59
